createdAt,value
2022-11-02T00:00:01.044Z,101199.19
2022-11-02T00:02:27.768Z,101191.03
2022-11-02T00:04:54.236Z,101189.38
2022-11-02T00:07:20.909Z,101188.56
2022-11-02T00:09:47.407Z,101185.56
2022-11-02T00:12:13.902Z,101181.19
2022-11-02T00:14:40.397Z,101185.00
2022-11-02T00:17:07.634Z,101185.56
2022-11-02T00:19:34.452Z,101180.13
2022-11-02T00:22:02.531Z,101182.28
2022-11-02T00:24:30.637Z,101180.13
2022-11-02T00:26:57.128Z,101182.84
2022-11-02T00:29:24.673Z,101183.94
2022-11-02T00:31:51.161Z,101185.25
2022-11-02T00:34:17.790Z,101174.09
2022-11-02T00:36:44.416Z,101171.66
2022-11-02T00:39:10.885Z,101161.88
2022-11-02T00:41:37.490Z,101162.94
2022-11-02T00:44:04.363Z,101164.31
2022-11-02T00:46:30.985Z,101163.47
2022-11-02T00:48:58.249Z,101157.75
2022-11-02T00:51:25.021Z,101152.06
2022-11-02T00:53:51.703Z,101137.63
2022-11-02T00:56:18.159Z,101153.69
2022-11-02T00:58:44.922Z,101150.97
2022-11-02T01:01:12.081Z,101143.88
2022-11-02T01:03:38.637Z,101146.34
2022-11-02T01:06:10.022Z,101142.53
2022-11-02T01:08:37.293Z,101137.91
2022-11-02T01:11:16.011Z,101140.09
2022-11-02T01:13:44.297Z,101136.53
2022-11-02T01:16:11.941Z,101137.63
2022-11-02T01:18:39.507Z,101125.63
2022-11-02T01:21:07.012Z,101127.28
2022-11-02T01:23:35.655Z,101118.56
2022-11-02T01:26:08.112Z,101126.16
2022-11-02T01:28:35.476Z,101123.16
2022-11-02T01:31:02.572Z,101115.28
2022-11-02T01:33:29.461Z,101109.81
2022-11-02T01:35:56.490Z,101100.59
2022-11-02T01:38:23.926Z,101109.03
2022-11-02T01:40:50.557Z,101094.06
2022-11-02T01:43:27.696Z,101086.97
2022-11-02T01:45:59.519Z,101075.00
2022-11-02T01:48:33.025Z,101079.91
2022-11-02T01:51:04.621Z,101075.28
2022-11-02T01:53:33.912Z,101079.09
2022-11-02T01:56:02.321Z,101075.56
2022-11-02T01:58:28.901Z,101076.09
2022-11-02T02:00:55.932Z,101075.84
2022-11-02T02:03:23.136Z,101075.28
2022-11-02T02:06:07.370Z,101074.19
2022-11-02T02:08:39.341Z,101073.66
2022-11-02T02:11:24.529Z,101083.72
2022-11-02T02:13:51.408Z,101088.38
2022-11-02T02:16:23.747Z,101084.28
2022-11-02T02:18:57.759Z,101081.81
2022-11-02T02:21:36.341Z,101088.06
2022-11-02T02:24:08.539Z,101083.19
2022-11-02T02:27:13.696Z,101089.44
2022-11-02T02:29:59.264Z,101071.19
2022-11-02T02:32:36.529Z,101059.78
2022-11-02T02:35:14.449Z,101064.16
2022-11-02T02:37:48.335Z,101067.41
2022-11-02T02:40:21.667Z,101077.47
2022-11-02T02:43:14.005Z,101080.22
2022-11-02T02:45:47.573Z,101073.94
2022-11-02T02:48:22.049Z,101073.66
2022-11-02T02:50:50.420Z,101070.38
2022-11-02T02:53:28.383Z,101060.31
2022-11-02T02:55:59.712Z,101071.47
2022-11-02T02:58:31.893Z,101070.38
2022-11-02T03:01:00.613Z,101074.22
2022-11-02T03:03:29.863Z,101065.75
2022-11-02T03:06:30.169Z,101070.94
2022-11-02T03:09:05.047Z,101064.41
2022-11-02T03:11:34.658Z,101053.25
2022-11-02T03:14:31.043Z,101043.69
2022-11-02T03:17:13.581Z,101062.22
2022-11-02T03:19:53.264Z,101057.88
2022-11-02T03:22:28.173Z,101068.50
2022-11-02T03:25:04.957Z,101062.50
2022-11-02T03:27:34.464Z,101059.78
2022-11-02T03:30:17.383Z,101061.13
2022-11-02T03:33:19.167Z,101060.03
2022-11-02T03:36:10.668Z,101060.31
2022-11-02T03:39:10.424Z,101061.66
2022-11-02T03:41:42.609Z,101054.88
2022-11-02T03:44:15.128Z,101046.44
2022-11-02T03:46:44.118Z,101049.72
2022-11-02T03:49:18.155Z,101051.34
2022-11-02T03:51:47.488Z,101042.91
2022-11-02T03:54:48.852Z,101050.53
2022-11-02T03:57:21.915Z,101048.88
2022-11-02T03:59:48.548Z,101051.59
2022-11-02T04:02:17.228Z,101058.16
2022-11-02T04:04:52.073Z,101047.78
2022-11-02T04:07:27.461Z,101049.97
2022-11-02T04:09:54.159Z,101053.22
2022-11-02T04:12:59.446Z,101046.97
2022-11-02T04:15:26.107Z,101061.13
2022-11-02T04:18:11.656Z,101061.38
2022-11-02T04:20:38.587Z,101059.50
2022-11-02T04:23:23.768Z,101063.03
2022-11-02T04:25:54.882Z,101069.81
2022-11-02T04:28:41.606Z,101074.16
2022-11-02T04:31:08.095Z,101070.38
2022-11-02T04:33:38.224Z,101078.81
2022-11-02T04:36:16.015Z,101080.97
2022-11-02T04:38:44.808Z,101086.91
2022-11-02T04:41:43.904Z,101081.50
2022-11-02T04:44:18.589Z,101086.66
2022-11-02T04:46:54.361Z,101088.56
2022-11-02T04:49:24.682Z,101083.38
2022-11-02T04:51:52.461Z,101084.78
2022-11-02T04:54:19.920Z,101082.03
2022-11-02T04:56:50.908Z,101080.38
2022-11-02T04:59:19.592Z,101072.22
2022-11-02T05:01:47.044Z,101073.56
2022-11-02T05:04:15.533Z,101077.66
2022-11-02T05:06:42.052Z,101076.84
2022-11-02T05:09:10.151Z,101081.44
2022-11-02T05:11:40.982Z,101081.44
2022-11-02T05:14:07.537Z,101090.97
2022-11-02T05:16:34.330Z,101088.53
2022-11-02T05:19:04.488Z,101083.34
2022-11-02T05:21:33.572Z,101085.28
2022-11-02T05:24:00.157Z,101088.81
2022-11-02T05:26:28.143Z,101087.13
2022-11-02T05:28:55.836Z,101081.44
2022-11-02T05:31:23.423Z,101089.84
2022-11-02T05:33:50.241Z,101089.06
2022-11-02T05:36:20.303Z,101083.63
2022-11-02T05:38:54.961Z,101077.34
2022-11-02T05:41:23.478Z,101087.09
2022-11-02T05:43:52.917Z,101084.31
2022-11-02T05:46:21.304Z,101080.28
2022-11-02T05:48:47.944Z,101083.56
2022-11-02T05:51:14.500Z,101089.00
2022-11-02T05:53:40.999Z,101093.06
2022-11-02T05:56:10.267Z,101092.22
2022-11-02T05:58:37.264Z,101105.03
2022-11-02T06:01:06.590Z,101099.06
2022-11-02T06:03:33.637Z,101105.59
2022-11-02T06:06:10.664Z,101103.41
2022-11-02T06:08:38.873Z,101113.50
2022-11-02T06:11:10.276Z,101105.59
2022-11-02T06:13:36.948Z,101109.09
2022-11-02T06:16:05.385Z,101092.28
2022-11-02T06:18:32.037Z,101101.50
2022-11-02T06:20:59.467Z,101113.50
2022-11-02T06:23:27.113Z,101115.09
2022-11-02T06:25:55.360Z,101116.75
2022-11-02T06:28:22.896Z,101117.56
2022-11-02T06:30:50.096Z,101116.00
2022-11-02T06:33:18.024Z,101122.78
2022-11-02T06:35:46.220Z,101122.84
2022-11-02T06:38:12.782Z,101123.94
2022-11-02T06:40:39.417Z,101129.97
2022-11-02T06:43:21.704Z,101128.31
2022-11-02T06:45:48.326Z,101136.78
2022-11-02T06:48:15.127Z,101130.81
2022-11-02T06:50:41.641Z,101138.97
2022-11-02T06:53:08.499Z,101152.06
2022-11-02T06:55:35.191Z,101140.09
2022-11-02T06:58:02.459Z,101153.97
2022-11-02T07:00:30.159Z,101161.88
2022-11-02T07:03:09.513Z,101169.25
2022-11-02T07:05:36.725Z,101167.59
2022-11-02T07:08:03.879Z,101179.06
2022-11-02T07:10:30.710Z,101174.69
2022-11-02T07:12:58.497Z,101181.78
2022-11-02T07:15:26.367Z,101178.50
2022-11-02T07:17:54.127Z,101186.16
2022-11-02T07:20:20.851Z,101191.28
2022-11-02T07:22:55.893Z,101189.44
2022-11-02T07:25:23.260Z,101185.63
2022-11-02T07:27:49.807Z,101191.31
2022-11-02T07:30:16.540Z,101184.50
2022-11-02T07:32:44.431Z,101183.41
2022-11-02T07:35:12.886Z,101195.66
2022-11-02T07:37:39.761Z,101204.94
2022-11-02T07:40:08.321Z,101198.94
2022-11-02T07:42:35.450Z,101203.28
2022-11-02T07:45:04.663Z,101211.19
2022-11-02T07:47:31.296Z,101223.19
2022-11-02T07:49:59.669Z,101216.13
2022-11-02T07:52:26.191Z,101217.50
2022-11-02T07:54:53.037Z,101231.94
2022-11-02T07:57:19.732Z,101239.56
2022-11-02T07:59:46.163Z,101237.41
2022-11-02T08:02:13.671Z,101246.38
2022-11-02T08:04:43.885Z,101239.00
2022-11-02T08:07:12.519Z,101242.84
2022-11-02T08:09:39.280Z,101249.09
2022-11-02T08:12:05.999Z,101249.09
2022-11-02T08:14:32.448Z,101249.34
2022-11-02T08:16:58.911Z,101245.25
2022-11-02T08:19:25.549Z,101248.22
2022-11-02T08:21:53.018Z,101261.88
2022-11-02T08:24:19.703Z,101244.72
2022-11-02T08:26:47.554Z,101259.38
2022-11-02T08:29:16.188Z,101260.25
2022-11-02T08:31:42.660Z,101260.25
2022-11-02T08:34:11.912Z,101267.31
2022-11-02T08:36:38.380Z,101255.28
2022-11-02T08:39:04.937Z,101259.41
2022-11-02T08:41:31.380Z,101258.03
2022-11-02T08:43:59.018Z,101263.47
2022-11-02T08:46:25.695Z,101279.81
2022-11-02T08:48:52.333Z,101278.50
2022-11-02T08:51:18.808Z,101271.13
2022-11-02T08:53:51.174Z,101291.56
2022-11-02T08:56:18.348Z,101283.09
2022-11-02T08:58:44.782Z,101282.84
2022-11-02T09:01:11.301Z,101278.50
2022-11-02T09:03:37.844Z,101295.38
2022-11-02T09:06:04.672Z,101299.16
2022-11-02T09:08:31.704Z,101294.84
2022-11-02T09:11:02.373Z,101298.63
2022-11-02T09:13:30.268Z,101304.66
2022-11-02T09:16:06.622Z,101295.09
2022-11-02T09:18:33.171Z,101308.75
2022-11-02T09:21:04.548Z,101312.00
2022-11-02T09:23:31.370Z,101310.66
2022-11-02T09:25:58.971Z,101323.47
2022-11-02T09:28:25.689Z,101319.09
2022-11-02T09:30:52.260Z,101320.72
2022-11-02T09:33:19.019Z,101327.28
2022-11-02T09:35:48.882Z,101323.44
2022-11-02T09:38:18.220Z,101325.31
2022-11-02T09:40:56.982Z,101327.75
2022-11-02T09:43:40.235Z,101342.53
2022-11-02T09:46:13.360Z,101338.16
2022-11-02T09:48:45.699Z,101336.78
2022-11-02T09:51:16.169Z,101340.63
2022-11-02T09:53:53.633Z,101341.69
2022-11-02T09:56:20.284Z,101348.22
2022-11-02T09:58:57.620Z,101345.25
2022-11-02T10:01:33.607Z,101352.06
2022-11-02T10:04:03.043Z,101375.00
2022-11-02T10:06:30.985Z,101358.91
2022-11-02T10:09:11.130Z,101360.50
2022-11-02T10:11:51.764Z,101362.19
2022-11-02T10:14:32.857Z,101359.94
2022-11-02T10:17:10.837Z,101360.50
2022-11-02T10:19:41.197Z,101366.25
2022-11-02T10:22:12.004Z,101362.75
2022-11-02T10:24:42.678Z,101373.06
2022-11-02T10:27:17.136Z,101366.53
2022-11-02T10:29:55.218Z,101378.25
2022-11-02T10:32:22.109Z,101372.78
2022-11-02T10:34:58.567Z,101379.91
2022-11-02T10:37:55.122Z,101374.69
2022-11-02T10:40:52.080Z,101381.75
2022-11-02T10:43:28.605Z,101380.13
2022-11-02T10:46:10.071Z,101389.44
2022-11-02T10:48:40.963Z,101397.03
2022-11-02T10:51:10.245Z,101397.56
2022-11-02T10:53:43.862Z,101409.34
2022-11-02T10:56:33.044Z,101414.28
2022-11-02T10:59:00.496Z,101397.63
2022-11-02T11:01:29.295Z,101409.06
2022-11-02T11:04:05.576Z,101419.44
2022-11-02T11:06:42.465Z,101416.44
2022-11-02T11:09:24.937Z,101421.13
2022-11-02T11:12:22.223Z,101423.84
2022-11-02T11:20:36.366Z,101424.91
2022-11-02T11:23:15.518Z,101435.72
2022-11-02T11:25:42.769Z,101431.78
2022-11-02T11:28:53.538Z,101447.63
2022-11-02T11:31:20.384Z,101435.59
2022-11-02T11:33:58.845Z,101433.97
2022-11-02T11:39:00.791Z,101458.09
2022-11-02T11:41:29.647Z,101450.47
2022-11-02T11:43:56.548Z,101456.84
2022-11-02T11:46:23.273Z,101471.06
2022-11-02T11:48:56.332Z,101464.50
2022-11-02T11:51:45.086Z,101463.72
2022-11-02T11:54:33.248Z,101458.25
2022-11-02T11:57:21.558Z,101461.25
2022-11-02T11:59:53.016Z,101459.63
2022-11-02T12:02:36.806Z,101466.97
2022-11-02T12:05:13.311Z,101471.31
2022-11-02T12:07:58.745Z,101470.25
2022-11-02T12:10:50.389Z,101462.59
2022-11-02T12:13:30.032Z,101463.94
2022-11-02T12:16:23.141Z,101466.25
2022-11-02T12:18:53.612Z,101470.66
2022-11-02T12:21:38.483Z,101473.81
2022-11-02T12:24:35.222Z,101474.94
2022-11-02T12:27:25.400Z,101490.81
2022-11-02T12:30:07.003Z,101486.19
2022-11-02T12:32:41.183Z,101486.94
2022-11-02T12:35:32.592Z,101487.69
2022-11-02T12:38:36.772Z,101495.66
2022-11-02T12:41:07.120Z,101491.28
2022-11-02T12:43:47.610Z,101489.16
2022-11-02T12:46:44.623Z,101493.56
2022-11-02T12:49:36.132Z,101493.28
2022-11-02T12:52:27.826Z,101502.88
2022-11-02T12:55:00.924Z,101491.13
2022-11-02T12:57:33.396Z,101494.13
2022-11-02T13:00:08.140Z,101488.91
2022-11-02T13:02:59.749Z,101496.25
2022-11-02T13:05:32.843Z,101494.63
2022-11-02T13:08:08.738Z,101506.31
2022-11-02T13:10:53.723Z,101507.66
2022-11-02T13:13:42.424Z,101502.19
2022-11-02T13:16:10.761Z,101498.63
2022-11-02T13:18:45.760Z,101509.31
2022-11-02T13:21:15.530Z,101515.34
2022-11-02T13:23:53.572Z,101514.81
2022-11-02T13:26:38.518Z,101518.13
2022-11-02T13:29:15.157Z,101518.66
2022-11-02T13:31:47.364Z,101517.84
2022-11-02T13:34:19.109Z,101524.47
2022-11-02T13:36:46.921Z,101523.41
2022-11-02T13:39:38.405Z,101526.16
2022-11-02T13:42:34.384Z,101534.38
2022-11-02T13:45:25.619Z,101524.81
2022-11-02T13:48:17.698Z,101529.50
2022-11-02T13:50:52.992Z,101530.06
2022-11-02T13:53:29.193Z,101536.63
2022-11-02T13:55:59.977Z,101530.59
2022-11-02T13:58:34.250Z,101532.53
2022-11-02T14:01:08.136Z,101521.31
2022-11-02T14:03:46.778Z,101524.88
2022-11-02T14:06:15.947Z,101514.78
2022-11-02T14:08:50.106Z,101516.97
2022-11-02T14:11:16.585Z,101519.41
2022-11-02T14:13:52.294Z,101524.88
2022-11-02T14:16:44.953Z,101532.53
2022-11-02T14:19:21.004Z,101539.06
2022-11-02T14:21:50.657Z,101535.47
2022-11-02T14:24:38.145Z,101537.66
2022-11-02T14:27:13.672Z,101541.75
2022-11-02T14:29:46.277Z,101543.94
2022-11-02T14:32:26.676Z,101534.94
2022-11-02T14:35:25.286Z,101542.84
2022-11-02T14:38:24.674Z,101545.88
2022-11-02T14:41:16.524Z,101551.91
2022-11-02T14:44:33.493Z,101547.84
2022-11-02T14:47:13.290Z,101539.91
2022-11-02T14:50:15.155Z,101527.88
2022-11-02T14:52:53.830Z,101527.88
2022-11-02T14:55:31.925Z,101525.16
2022-11-02T14:58:07.936Z,101525.16
2022-11-02T15:00:49.427Z,101519.69
2022-11-02T15:03:25.419Z,101518.88
2022-11-02T15:06:10.688Z,101518.06
2022-11-02T15:08:43.134Z,101516.13
2022-11-02T15:11:43.531Z,101519.94
2022-11-02T15:14:42.477Z,101516.13
2022-11-02T15:17:15.031Z,101516.69
2022-11-02T15:19:47.086Z,101527.31
2022-11-02T15:22:28.938Z,101521.31
2022-11-02T15:25:05.635Z,101524.00
2022-11-02T15:27:34.571Z,101517.19
2022-11-02T15:30:02.842Z,101534.34
2022-11-02T15:32:34.760Z,101535.13
2022-11-02T15:35:02.157Z,101535.66
2022-11-02T15:37:37.364Z,101528.06
2022-11-02T15:40:27.642Z,101529.91
2022-11-02T15:43:19.507Z,101532.59
2022-11-02T15:46:05.119Z,101536.44
2022-11-02T15:48:56.481Z,101543.47
2022-11-02T15:51:48.145Z,101539.94
2022-11-02T15:54:59.908Z,101543.63
2022-11-02T15:57:36.583Z,101543.59
2022-11-02T16:00:13.184Z,101548.09
2022-11-02T16:02:43.618Z,101540.19
2022-11-02T16:05:20.634Z,101541.28
2022-11-02T16:08:10.009Z,101540.16
2022-11-02T16:10:36.371Z,101540.44
2022-11-02T16:13:17.241Z,101545.00
2022-11-02T16:15:45.188Z,101535.94
2022-11-02T16:18:29.269Z,101544.56
2022-11-02T16:21:02.508Z,101542.63
2022-11-02T16:23:31.463Z,101534.16
2022-11-02T16:26:00.242Z,101531.44
2022-11-02T16:28:32.839Z,101532.44
2022-11-02T16:31:38.002Z,101536.75
2022-11-02T16:34:26.753Z,101536.97
2022-11-02T16:36:54.439Z,101540.75
2022-11-02T16:39:31.786Z,101541.28
2022-11-02T16:42:00.511Z,101539.34
2022-11-02T16:44:30.577Z,101541.75
2022-11-02T16:47:00.777Z,101547.72
2022-11-02T16:49:29.082Z,101546.00
2022-11-02T16:51:58.693Z,101551.41
2022-11-02T16:54:30.356Z,101549.50
2022-11-02T16:57:19.924Z,101549.69
2022-11-02T16:59:56.784Z,101543.66
2022-11-02T17:02:29.393Z,101553.28
2022-11-02T17:05:02.371Z,101553.47
2022-11-02T17:07:44.699Z,101555.34
2022-11-02T17:10:25.355Z,101556.38
2022-11-02T17:12:52.125Z,101551.69
2022-11-02T17:15:22.495Z,101552.13
2022-11-02T17:17:49.816Z,101554.78
2022-11-02T17:20:20.601Z,101559.38
2022-11-02T17:22:56.905Z,101557.50
2022-11-02T17:25:27.895Z,101555.53
2022-11-02T17:27:56.593Z,101565.16
2022-11-02T17:30:35.194Z,101555.88
2022-11-02T17:33:18.077Z,101558.22
2022-11-02T17:35:46.992Z,101554.53
2022-11-02T17:38:13.920Z,101556.09
2022-11-02T17:40:41.575Z,101561.47
2022-11-02T17:43:08.363Z,101564.66
2022-11-02T17:45:39.533Z,101562.78
2022-11-02T17:48:07.854Z,101548.63
2022-11-02T17:50:36.127Z,101553.34
2022-11-02T17:53:04.072Z,101558.69
2022-11-02T17:55:33.709Z,101560.25
2022-11-02T17:58:00.832Z,101564.78
2022-11-02T18:00:28.764Z,101558.19
2022-11-02T18:03:00.540Z,101572.22
2022-11-02T18:05:30.251Z,101570.84
2022-11-02T18:07:58.656Z,101562.38
2022-11-02T18:10:32.970Z,101573.63
2022-11-02T18:13:00.132Z,101559.38
2022-11-02T18:15:29.524Z,101563.19
2022-11-02T18:17:56.935Z,101555.78
2022-11-02T18:20:24.048Z,101561.94
2022-11-02T18:22:50.554Z,101561.34
2022-11-02T18:25:18.397Z,101557.84
2022-11-02T18:27:46.136Z,101553.13
2022-11-02T18:30:15.697Z,101545.00
2022-11-02T18:32:43.845Z,101551.72
2022-11-02T18:35:16.424Z,101541.63
2022-11-02T18:37:43.217Z,101545.88
2022-11-02T18:40:12.039Z,101547.78
2022-11-02T18:42:39.859Z,101536.59
2022-11-02T18:45:07.707Z,101536.03
2022-11-02T18:47:34.797Z,101533.78
2022-11-02T18:50:02.338Z,101531.06
2022-11-02T18:52:32.551Z,101530.22
2022-11-02T18:55:04.779Z,101531.72
2022-11-02T18:57:32.528Z,101537.00
2022-11-02T18:59:59.784Z,101538.41
2022-11-02T19:02:26.412Z,101534.91
2022-11-02T19:04:53.072Z,101533.00
2022-11-02T19:07:38.533Z,101532.63
2022-11-02T19:10:05.444Z,101528.16
2022-11-02T19:12:32.116Z,101519.94
2022-11-02T19:14:58.936Z,101518.56
2022-11-02T19:17:26.651Z,101526.91
2022-11-02T19:19:53.695Z,101521.16
2022-11-02T19:22:25.684Z,101520.22
2022-11-02T19:24:52.580Z,101516.13
2022-11-02T19:27:21.448Z,101523.69
2022-11-02T19:29:48.447Z,101523.06
2022-11-02T19:32:15.081Z,101516.03
2022-11-02T19:34:41.582Z,101513.56
2022-11-02T19:37:08.981Z,101506.72
2022-11-02T19:39:35.755Z,101505.31
2022-11-02T19:42:03.496Z,101500.63
2022-11-02T19:44:30.675Z,101495.78
2022-11-02T19:46:57.239Z,101509.13
2022-11-02T19:49:23.985Z,101505.84
2022-11-02T19:51:50.501Z,101505.50
2022-11-02T19:54:17.216Z,101498.56
2022-11-02T19:56:43.691Z,101493.03
2022-11-02T19:59:10.165Z,101487.84
2022-11-02T20:01:38.818Z,101491.72
2022-11-02T20:04:05.850Z,101496.34
2022-11-02T20:06:40.835Z,101493.88
2022-11-02T20:09:13.828Z,101493.03
2022-11-02T20:11:44.382Z,101490.56
2022-11-02T20:14:12.587Z,101492.22
2022-11-02T20:16:39.648Z,101491.16
2022-11-02T20:19:06.568Z,101478.59
2022-11-02T20:21:36.930Z,101485.28
2022-11-02T20:24:08.103Z,101486.44
2022-11-02T20:26:36.823Z,101479.75
2022-11-02T20:29:05.037Z,101483.28
2022-11-02T20:31:34.573Z,101473.53
2022-11-02T20:34:02.826Z,101469.88
2022-11-02T20:36:30.598Z,101479.41
2022-11-02T20:38:57.561Z,101469.28
2022-11-02T20:41:24.542Z,101472.94
2022-11-02T20:43:53.507Z,101465.78
2022-11-02T20:46:47.372Z,101465.41
2022-11-02T20:49:22.887Z,101464.94
2022-11-02T20:52:02.381Z,101469.31
2022-11-02T20:54:29.957Z,101466.94
2022-11-02T20:56:57.743Z,101468.72
2022-11-02T20:59:25.242Z,101475.06
2022-11-02T21:01:51.829Z,101467.75
2022-11-02T21:04:21.169Z,101461.06
2022-11-02T21:06:49.820Z,101462.72
2022-11-02T21:09:17.030Z,101470.81
2022-11-02T21:12:02.224Z,101462.56
2022-11-02T21:14:28.628Z,101459.59
2022-11-02T21:16:55.657Z,101456.16
2022-11-02T21:19:22.297Z,101460.28
2022-11-02T21:21:48.805Z,101457.09
2022-11-02T21:24:15.346Z,101454.00
2022-11-02T21:26:41.784Z,101453.28
2022-11-02T21:29:09.294Z,101449.50
2022-11-02T21:31:35.771Z,101440.09
2022-11-02T21:34:02.412Z,101436.53
2022-11-02T21:36:28.897Z,101435.72
2022-11-02T21:38:56.021Z,101429.81
2022-11-02T21:41:26.503Z,101437.63
2022-11-02T21:43:55.901Z,101432.19
2022-11-02T21:46:25.463Z,101425.13
2022-11-02T21:48:52.408Z,101424.78
2022-11-02T21:51:20.852Z,101438.00
2022-11-02T21:53:48.497Z,101424.75
2022-11-02T21:56:17.496Z,101437.22
2022-11-02T21:58:46.066Z,101431.03
2022-11-02T22:01:42.631Z,101421.50
2022-11-02T22:04:11.371Z,101422.47
2022-11-02T22:06:38.217Z,101417.53
2022-11-02T22:09:07.156Z,101414.94
2022-11-02T22:11:34.126Z,101418.94
2022-11-02T22:14:02.461Z,101419.91
2022-11-02T22:16:31.980Z,101420.25
2022-11-02T22:19:00.731Z,101418.03
2022-11-02T22:21:30.583Z,101415.09
2022-11-02T22:23:57.777Z,101414.97
2022-11-02T22:26:27.005Z,101414.25
2022-11-02T22:28:56.751Z,101422.88
2022-11-02T22:31:32.057Z,101414.75
2022-11-02T22:34:00.879Z,101410.63
2022-11-02T22:36:30.053Z,101409.09
2022-11-02T22:38:58.736Z,101407.78
2022-11-02T22:41:32.021Z,101402.03
2022-11-02T22:44:02.126Z,101393.44
2022-11-02T22:46:30.704Z,101385.44
2022-11-02T22:48:58.904Z,101388.63
2022-11-02T22:51:28.093Z,101389.53
2022-11-02T22:53:54.629Z,101375.78
2022-11-02T22:56:23.212Z,101377.19
2022-11-02T22:58:50.131Z,101372.72
2022-11-02T23:01:21.905Z,101373.19
2022-11-02T23:03:48.841Z,101375.16
2022-11-02T23:06:16.283Z,101365.97
2022-11-02T23:08:45.808Z,101361.94
2022-11-02T23:11:25.251Z,101356.66
2022-11-02T23:13:57.980Z,101353.22
2022-11-02T23:16:29.920Z,101362.88
2022-11-02T23:19:41.694Z,101357.97
2022-11-02T23:22:28.883Z,101367.22
2022-11-02T23:25:14.010Z,101351.50
2022-11-02T23:28:20.125Z,101357.28
2022-11-02T23:31:05.507Z,101350.69
2022-11-02T23:33:33.931Z,101345.03
2022-11-02T23:36:13.793Z,101346.94
2022-11-02T23:38:59.990Z,101335.00
2022-11-02T23:41:28.976Z,101330.19
2022-11-02T23:44:11.644Z,101336.50
2022-11-02T23:46:48.996Z,101328.84
2022-11-02T23:49:17.621Z,101333.22
2022-11-02T23:52:02.484Z,101328.63
2022-11-02T23:54:47.756Z,101323.44
2022-11-02T23:57:14.281Z,101327.72
2022-11-02T23:59:40.704Z,101322.63
